sensor_id;sensor_type;location;lat;lon;timestamp;P1;durP1;ratioP1;P2;durP2;ratioP2
38182;SDS011;23991;52.430;10.586;2024-01-07T00:00:18;14.82;;;7.22;;
38182;SDS011;23991;52.430;10.586;2024-01-07T00:02:44;10.70;;;6.80;;
38182;SDS011;23991;52.430;10.586;2024-01-07T00:05:10;13.13;;;7.07;;
38182;SDS011;23991;52.430;10.586;2024-01-07T00:07:35;11.45;;;6.93;;
38182;SDS011;23991;52.430;10.586;2024-01-07T00:10:01;19.08;;;7.25;;
38182;SDS011;23991;52.430;10.586;2024-01-07T00:12:27;9.60;;;5.40;;
38182;SDS011;23991;52.430;10.586;2024-01-07T00:14:52;13.75;;;6.22;;
38182;SDS011;23991;52.430;10.586;2024-01-07T00:17:18;11.55;;;5.78;;
38182;SDS011;23991;52.430;10.586;2024-01-07T00:19:44;10.50;;;5.75;;
38182;SDS011;23991;52.430;10.586;2024-01-07T00:22:09;11.27;;;6.13;;
38182;SDS011;23991;52.430;10.586;2024-01-07T00:24:35;12.57;;;6.00;;
38182;SDS011;23991;52.430;10.586;2024-01-07T00:27:01;14.27;;;5.97;;
38182;SDS011;23991;52.430;10.586;2024-01-07T00:29:26;13.43;;;5.60;;
38182;SDS011;23991;52.430;10.586;2024-01-07T00:31:52;13.02;;;6.05;;
38182;SDS011;23991;52.430;10.586;2024-01-07T00:34:17;11.00;;;5.78;;
38182;SDS011;23991;52.430;10.586;2024-01-07T00:36:43;10.63;;;5.03;;
38182;SDS011;23991;52.430;10.586;2024-01-07T00:39:09;10.98;;;5.85;;
38182;SDS011;23991;52.430;10.586;2024-01-07T00:41:34;14.57;;;6.07;;
38182;SDS011;23991;52.430;10.586;2024-01-07T00:44:00;10.45;;;6.50;;
38182;SDS011;23991;52.430;10.586;2024-01-07T00:46:25;12.70;;;5.82;;
38182;SDS011;23991;52.430;10.586;2024-01-07T00:48:51;9.85;;;5.20;;
38182;SDS011;23991;52.430;10.586;2024-01-07T00:51:17;13.15;;;5.63;;
38182;SDS011;23991;52.430;10.586;2024-01-07T00:53:42;10.75;;;5.80;;
38182;SDS011;23991;52.430;10.586;2024-01-07T00:56:09;11.23;;;5.68;;
38182;SDS011;23991;52.430;10.586;2024-01-07T00:58:35;11.15;;;5.82;;
38182;SDS011;23991;52.430;10.586;2024-01-07T01:01:01;12.70;;;5.78;;
38182;SDS011;23991;52.430;10.586;2024-01-07T01:03:27;13.13;;;5.97;;
38182;SDS011;23991;52.430;10.586;2024-01-07T01:05:52;12.43;;;5.97;;
38182;SDS011;23991;52.430;10.586;2024-01-07T01:08:18;12.30;;;5.90;;
38182;SDS011;23991;52.430;10.586;2024-01-07T01:10:44;10.32;;;5.70;;
38182;SDS011;23991;52.430;10.586;2024-01-07T01:13:09;9.38;;;5.70;;
38182;SDS011;23991;52.430;10.586;2024-01-07T01:15:35;11.88;;;5.22;;
38182;SDS011;23991;52.430;10.586;2024-01-07T01:18:01;11.55;;;5.78;;
38182;SDS011;23991;52.430;10.586;2024-01-07T01:20:26;14.23;;;5.43;;
38182;SDS011;23991;52.430;10.586;2024-01-07T01:22:52;11.95;;;5.60;;
38182;SDS011;23991;52.430;10.586;2024-01-07T01:25:18;12.77;;;6.25;;
38182;SDS011;23991;52.430;10.586;2024-01-07T01:27:44;9.10;;;5.30;;
38182;SDS011;23991;52.430;10.586;2024-01-07T01:30:10;8.93;;;5.05;;
38182;SDS011;23991;52.430;10.586;2024-01-07T01:32:36;10.73;;;5.45;;
38182;SDS011;23991;52.430;10.586;2024-01-07T01:35:04;10.75;;;4.75;;
38182;SDS011;23991;52.430;10.586;2024-01-07T01:37:30;8.50;;;4.95;;
38182;SDS011;23991;52.430;10.586;2024-01-07T01:39:57;9.45;;;5.10;;
38182;SDS011;23991;52.430;10.586;2024-01-07T01:42:23;9.93;;;5.15;;
38182;SDS011;23991;52.430;10.586;2024-01-07T01:44:49;12.07;;;5.60;;
38182;SDS011;23991;52.430;10.586;2024-01-07T01:47:15;9.57;;;4.30;;
38182;SDS011;23991;52.430;10.586;2024-01-07T01:49:41;13.25;;;5.05;;
38182;SDS011;23991;52.430;10.586;2024-01-07T01:52:08;9.35;;;4.55;;
38182;SDS011;23991;52.430;10.586;2024-01-07T01:54:34;9.48;;;4.35;;
38182;SDS011;23991;52.430;10.586;2024-01-07T01:57:01;8.48;;;4.18;;
38182;SDS011;23991;52.430;10.586;2024-01-07T01:59:26;10.95;;;4.38;;
38182;SDS011;23991;52.430;10.586;2024-01-07T02:01:54;8.20;;;4.43;;
38182;SDS011;23991;52.430;10.586;2024-01-07T02:04:20;9.52;;;3.88;;
38182;SDS011;23991;52.430;10.586;2024-01-07T02:06:46;7.78;;;3.70;;
38182;SDS011;23991;52.430;10.586;2024-01-07T02:09:11;7.63;;;3.88;;
38182;SDS011;23991;52.430;10.586;2024-01-07T02:11:37;6.70;;;3.58;;
38182;SDS011;23991;52.430;10.586;2024-01-07T02:14:03;9.00;;;3.67;;
38182;SDS011;23991;52.430;10.586;2024-01-07T02:16:28;7.93;;;3.65;;
38182;SDS011;23991;52.430;10.586;2024-01-07T02:18:54;5.82;;;3.28;;
38182;SDS011;23991;52.430;10.586;2024-01-07T02:21:20;7.35;;;3.88;;
38182;SDS011;23991;52.430;10.586;2024-01-07T02:23:45;9.07;;;4.18;;
38182;SDS011;23991;52.430;10.586;2024-01-07T02:26:11;8.38;;;3.20;;
38182;SDS011;23991;52.430;10.586;2024-01-07T02:28:36;6.18;;;3.42;;
38182;SDS011;23991;52.430;10.586;2024-01-07T02:31:02;8.35;;;3.50;;
38182;SDS011;23991;52.430;10.586;2024-01-07T02:33:28;6.97;;;4.07;;
38182;SDS011;23991;52.430;10.586;2024-01-07T02:35:55;7.18;;;4.38;;
38182;SDS011;23991;52.430;10.586;2024-01-07T02:38:21;4.88;;;3.10;;
38182;SDS011;23991;52.430;10.586;2024-01-07T02:40:47;6.25;;;3.53;;
38182;SDS011;23991;52.430;10.586;2024-01-07T02:43:12;5.13;;;3.10;;
38182;SDS011;23991;52.430;10.586;2024-01-07T02:45:38;5.95;;;2.97;;
38182;SDS011;23991;52.430;10.586;2024-01-07T02:48:04;5.85;;;2.92;;
38182;SDS011;23991;52.430;10.586;2024-01-07T02:50:32;4.82;;;2.42;;
38182;SDS011;23991;52.430;10.586;2024-01-07T02:52:58;5.00;;;2.72;;
38182;SDS011;23991;52.430;10.586;2024-01-07T02:55:24;5.43;;;2.67;;
38182;SDS011;23991;52.430;10.586;2024-01-07T02:57:49;4.75;;;2.50;;
38182;SDS011;23991;52.430;10.586;2024-01-07T03:00:15;4.60;;;2.10;;
38182;SDS011;23991;52.430;10.586;2024-01-07T03:02:41;5.65;;;2.63;;
38182;SDS011;23991;52.430;10.586;2024-01-07T03:05:07;4.53;;;2.47;;
38182;SDS011;23991;52.430;10.586;2024-01-07T03:07:33;6.53;;;2.45;;
38182;SDS011;23991;52.430;10.586;2024-01-07T03:09:58;4.50;;;2.60;;
38182;SDS011;23991;52.430;10.586;2024-01-07T03:12:24;6.13;;;2.20;;
38182;SDS011;23991;52.430;10.586;2024-01-07T03:14:50;5.53;;;2.72;;
38182;SDS011;23991;52.430;10.586;2024-01-07T03:17:15;7.65;;;2.78;;
38182;SDS011;23991;52.430;10.586;2024-01-07T03:19:42;5.53;;;2.28;;
38182;SDS011;23991;52.430;10.586;2024-01-07T03:22:08;5.53;;;2.40;;
38182;SDS011;23991;52.430;10.586;2024-01-07T03:24:34;4.18;;;2.22;;
38182;SDS011;23991;52.430;10.586;2024-01-07T03:26:59;6.55;;;2.08;;
38182;SDS011;23991;52.430;10.586;2024-01-07T03:29:25;4.38;;;2.17;;
38182;SDS011;23991;52.430;10.586;2024-01-07T03:31:51;3.70;;;2.13;;
38182;SDS011;23991;52.430;10.586;2024-01-07T03:34:17;3.70;;;2.20;;
38182;SDS011;23991;52.430;10.586;2024-01-07T03:36:44;4.22;;;2.10;;
38182;SDS011;23991;52.430;10.586;2024-01-07T03:39:09;5.07;;;2.30;;
38182;SDS011;23991;52.430;10.586;2024-01-07T03:41:35;3.33;;;1.80;;
38182;SDS011;23991;52.430;10.586;2024-01-07T03:44:01;4.63;;;3.03;;
38182;SDS011;23991;52.430;10.586;2024-01-07T03:46:27;3.00;;;1.90;;
38182;SDS011;23991;52.430;10.586;2024-01-07T03:48:52;3.20;;;2.00;;
38182;SDS011;23991;52.430;10.586;2024-01-07T03:51:18;5.50;;;2.33;;
38182;SDS011;23991;52.430;10.586;2024-01-07T03:53:44;4.00;;;2.33;;
38182;SDS011;23991;52.430;10.586;2024-01-07T03:56:09;5.63;;;2.13;;
38182;SDS011;23991;52.430;10.586;2024-01-07T03:58:35;6.28;;;2.20;;
38182;SDS011;23991;52.430;10.586;2024-01-07T04:01:00;5.05;;;2.17;;
38182;SDS011;23991;52.430;10.586;2024-01-07T04:03:26;5.22;;;2.20;;
38182;SDS011;23991;52.430;10.586;2024-01-07T04:05:52;4.60;;;2.35;;
38182;SDS011;23991;52.430;10.586;2024-01-07T04:08:18;5.38;;;2.55;;
38182;SDS011;23991;52.430;10.586;2024-01-07T04:10:43;7.00;;;2.42;;
38182;SDS011;23991;52.430;10.586;2024-01-07T04:13:09;3.58;;;2.33;;
38182;SDS011;23991;52.430;10.586;2024-01-07T04:15:35;4.43;;;2.22;;
38182;SDS011;23991;52.430;10.586;2024-01-07T04:18:04;3.38;;;2.08;;
38182;SDS011;23991;52.430;10.586;2024-01-07T04:20:30;3.10;;;1.90;;
38182;SDS011;23991;52.430;10.586;2024-01-07T04:22:56;4.97;;;2.17;;
38182;SDS011;23991;52.430;10.586;2024-01-07T04:25:23;4.93;;;2.15;;
38182;SDS011;23991;52.430;10.586;2024-01-07T04:27:48;6.15;;;2.33;;
38182;SDS011;23991;52.430;10.586;2024-01-07T04:30:14;3.95;;;1.92;;
38182;SDS011;23991;52.430;10.586;2024-01-07T04:32:40;5.10;;;2.10;;
38182;SDS011;23991;52.430;10.586;2024-01-07T04:35:05;4.45;;;2.40;;
38182;SDS011;23991;52.430;10.586;2024-01-07T04:37:32;5.50;;;2.55;;
38182;SDS011;23991;52.430;10.586;2024-01-07T04:39:58;5.10;;;2.08;;
38182;SDS011;23991;52.430;10.586;2024-01-07T04:42:24;3.88;;;2.47;;
38182;SDS011;23991;52.430;10.586;2024-01-07T04:44:49;4.63;;;2.08;;
38182;SDS011;23991;52.430;10.586;2024-01-07T04:49:54;5.75;;;2.35;;
38182;SDS011;23991;52.430;10.586;2024-01-07T04:52:21;4.60;;;2.20;;
38182;SDS011;23991;52.430;10.586;2024-01-07T04:54:50;4.68;;;2.50;;
38182;SDS011;23991;52.430;10.586;2024-01-07T04:57:16;4.80;;;2.30;;
38182;SDS011;23991;52.430;10.586;2024-01-07T04:59:42;5.50;;;2.42;;
38182;SDS011;23991;52.430;10.586;2024-01-07T05:02:08;6.43;;;2.70;;
38182;SDS011;23991;52.430;10.586;2024-01-07T05:04:35;5.03;;;2.70;;
38182;SDS011;23991;52.430;10.586;2024-01-07T05:07:00;5.57;;;2.45;;
38182;SDS011;23991;52.430;10.586;2024-01-07T05:09:26;4.60;;;2.75;;
38182;SDS011;23991;52.430;10.586;2024-01-07T05:11:52;4.45;;;2.63;;
38182;SDS011;23991;52.430;10.586;2024-01-07T05:14:17;4.68;;;2.45;;
38182;SDS011;23991;52.430;10.586;2024-01-07T05:16:43;5.65;;;2.45;;
38182;SDS011;23991;52.430;10.586;2024-01-07T05:19:09;4.93;;;2.72;;
38182;SDS011;23991;52.430;10.586;2024-01-07T05:21:34;6.70;;;2.60;;
38182;SDS011;23991;52.430;10.586;2024-01-07T05:24:00;4.50;;;2.45;;
38182;SDS011;23991;52.430;10.586;2024-01-07T05:26:26;4.85;;;2.38;;
38182;SDS011;23991;52.430;10.586;2024-01-07T05:28:51;4.03;;;2.22;;
38182;SDS011;23991;52.430;10.586;2024-01-07T05:31:17;4.35;;;2.47;;
38182;SDS011;23991;52.430;10.586;2024-01-07T05:33:44;4.55;;;2.70;;
38182;SDS011;23991;52.430;10.586;2024-01-07T05:36:10;6.78;;;2.55;;
38182;SDS011;23991;52.430;10.586;2024-01-07T05:38:36;6.10;;;2.30;;
38182;SDS011;23991;52.430;10.586;2024-01-07T05:41:02;5.82;;;2.65;;
38182;SDS011;23991;52.430;10.586;2024-01-07T05:43:28;5.03;;;2.53;;
38182;SDS011;23991;52.430;10.586;2024-01-07T05:45:53;6.03;;;2.60;;
38182;SDS011;23991;52.430;10.586;2024-01-07T05:48:22;4.47;;;2.42;;
38182;SDS011;23991;52.430;10.586;2024-01-07T05:50:48;5.88;;;3.22;;
38182;SDS011;23991;52.430;10.586;2024-01-07T05:53:15;5.90;;;2.40;;
38182;SDS011;23991;52.430;10.586;2024-01-07T05:55:41;5.57;;;2.50;;
38182;SDS011;23991;52.430;10.586;2024-01-07T05:58:06;3.55;;;2.08;;
38182;SDS011;23991;52.430;10.586;2024-01-07T06:00:32;8.65;;;2.92;;
38182;SDS011;23991;52.430;10.586;2024-01-07T06:02:57;4.38;;;3.00;;
38182;SDS011;23991;52.430;10.586;2024-01-07T06:05:23;4.75;;;2.25;;
38182;SDS011;23991;52.430;10.586;2024-01-07T06:07:49;4.55;;;2.47;;
38182;SDS011;23991;52.430;10.586;2024-01-07T06:10:21;4.78;;;2.78;;
38182;SDS011;23991;52.430;10.586;2024-01-07T06:12:46;5.13;;;2.72;;
38182;SDS011;23991;52.430;10.586;2024-01-07T06:15:12;6.07;;;2.85;;
38182;SDS011;23991;52.430;10.586;2024-01-07T06:17:38;4.93;;;2.38;;
38182;SDS011;23991;52.430;10.586;2024-01-07T06:20:03;5.95;;;2.50;;
38182;SDS011;23991;52.430;10.586;2024-01-07T06:22:31;5.95;;;2.22;;
38182;SDS011;23991;52.430;10.586;2024-01-07T06:24:56;4.88;;;2.55;;
38182;SDS011;23991;52.430;10.586;2024-01-07T06:27:22;4.68;;;2.40;;
38182;SDS011;23991;52.430;10.586;2024-01-07T06:29:47;4.63;;;2.67;;
38182;SDS011;23991;52.430;10.586;2024-01-07T06:32:13;5.28;;;2.78;;
38182;SDS011;23991;52.430;10.586;2024-01-07T06:34:39;4.25;;;2.78;;
38182;SDS011;23991;52.430;10.586;2024-01-07T06:37:04;4.00;;;2.40;;
38182;SDS011;23991;52.430;10.586;2024-01-07T06:39:32;4.53;;;2.60;;
38182;SDS011;23991;52.430;10.586;2024-01-07T06:41:59;5.82;;;2.83;;
38182;SDS011;23991;52.430;10.586;2024-01-07T06:44:25;4.55;;;2.40;;
38182;SDS011;23991;52.430;10.586;2024-01-07T06:46:50;5.30;;;2.50;;
38182;SDS011;23991;52.430;10.586;2024-01-07T06:49:16;5.85;;;3.03;;
38182;SDS011;23991;52.430;10.586;2024-01-07T06:51:42;5.55;;;2.60;;
38182;SDS011;23991;52.430;10.586;2024-01-07T06:54:08;4.57;;;2.60;;
38182;SDS011;23991;52.430;10.586;2024-01-07T06:56:34;4.75;;;2.65;;
38182;SDS011;23991;52.430;10.586;2024-01-07T06:58:59;5.72;;;2.90;;
38182;SDS011;23991;52.430;10.586;2024-01-07T07:01:25;5.05;;;2.90;;
38182;SDS011;23991;52.430;10.586;2024-01-07T07:03:51;4.75;;;2.83;;
38182;SDS011;23991;52.430;10.586;2024-01-07T07:06:16;5.95;;;2.90;;
38182;SDS011;23991;52.430;10.586;2024-01-07T07:08:42;5.53;;;3.03;;
38182;SDS011;23991;52.430;10.586;2024-01-07T07:11:08;4.85;;;3.03;;
38182;SDS011;23991;52.430;10.586;2024-01-07T07:13:34;6.07;;;3.47;;
38182;SDS011;23991;52.430;10.586;2024-01-07T07:16:00;6.07;;;2.80;;
38182;SDS011;23991;52.430;10.586;2024-01-07T07:18:26;5.93;;;2.60;;
38182;SDS011;23991;52.430;10.586;2024-01-07T07:20:52;6.18;;;2.85;;
38182;SDS011;23991;52.430;10.586;2024-01-07T07:23:17;7.55;;;2.55;;
38182;SDS011;23991;52.430;10.586;2024-01-07T07:25:43;7.28;;;2.78;;
38182;SDS011;23991;52.430;10.586;2024-01-07T07:28:09;6.82;;;2.75;;
38182;SDS011;23991;52.430;10.586;2024-01-07T07:30:35;6.57;;;3.00;;
38182;SDS011;23991;52.430;10.586;2024-01-07T07:33:01;5.10;;;2.60;;
38182;SDS011;23991;52.430;10.586;2024-01-07T07:35:28;4.47;;;2.30;;
38182;SDS011;23991;52.430;10.586;2024-01-07T07:37:53;4.28;;;2.47;;
38182;SDS011;23991;52.430;10.586;2024-01-07T07:40:20;5.47;;;2.63;;
38182;SDS011;23991;52.430;10.586;2024-01-07T07:42:45;4.80;;;2.72;;
38182;SDS011;23991;52.430;10.586;2024-01-07T07:45:11;5.60;;;2.90;;
38182;SDS011;23991;52.430;10.586;2024-01-07T07:47:37;7.55;;;3.80;;
38182;SDS011;23991;52.430;10.586;2024-01-07T07:50:08;6.72;;;3.78;;
38182;SDS011;23991;52.430;10.586;2024-01-07T07:52:35;4.63;;;2.95;;
38182;SDS011;23991;52.430;10.586;2024-01-07T07:55:01;5.80;;;3.00;;
38182;SDS011;23991;52.430;10.586;2024-01-07T07:57:26;9.57;;;3.13;;
38182;SDS011;23991;52.430;10.586;2024-01-07T07:59:53;5.05;;;2.80;;
38182;SDS011;23991;52.430;10.586;2024-01-07T08:02:19;5.22;;;2.72;;
38182;SDS011;23991;52.430;10.586;2024-01-07T08:04:46;5.60;;;3.00;;
38182;SDS011;23991;52.430;10.586;2024-01-07T08:07:12;5.80;;;2.70;;
38182;SDS011;23991;52.430;10.586;2024-01-07T08:09:38;8.93;;;2.70;;
38182;SDS011;23991;52.430;10.586;2024-01-07T08:12:04;5.78;;;2.97;;
38182;SDS011;23991;52.430;10.586;2024-01-07T08:14:30;4.85;;;3.00;;
38182;SDS011;23991;52.430;10.586;2024-01-07T08:16:56;7.13;;;2.63;;
38182;SDS011;23991;52.430;10.586;2024-01-07T08:19:22;6.57;;;2.55;;
38182;SDS011;23991;52.430;10.586;2024-01-07T08:21:48;6.68;;;3.22;;
38182;SDS011;23991;52.430;10.586;2024-01-07T08:24:13;4.97;;;2.88;;
38182;SDS011;23991;52.430;10.586;2024-01-07T08:26:39;6.90;;;3.25;;
38182;SDS011;23991;52.430;10.586;2024-01-07T08:29:05;4.50;;;3.03;;
38182;SDS011;23991;52.430;10.586;2024-01-07T08:31:30;6.15;;;3.58;;
38182;SDS011;23991;52.430;10.586;2024-01-07T08:33:57;4.75;;;3.00;;
38182;SDS011;23991;52.430;10.586;2024-01-07T08:36:22;7.40;;;3.33;;
38182;SDS011;23991;52.430;10.586;2024-01-07T08:38:48;5.32;;;3.75;;
38182;SDS011;23991;52.430;10.586;2024-01-07T08:41:17;5.13;;;4.13;;
38182;SDS011;23991;52.430;10.586;2024-01-07T08:43:42;7.63;;;4.43;;
38182;SDS011;23991;52.430;10.586;2024-01-07T08:46:09;6.55;;;3.58;;
38182;SDS011;23991;52.430;10.586;2024-01-07T08:48:35;7.57;;;3.65;;
38182;SDS011;23991;52.430;10.586;2024-01-07T08:51:01;6.47;;;3.50;;
38182;SDS011;23991;52.430;10.586;2024-01-07T08:53:28;7.57;;;3.58;;
38182;SDS011;23991;52.430;10.586;2024-01-07T08:55:53;6.68;;;3.72;;
38182;SDS011;23991;52.430;10.586;2024-01-07T08:58:19;6.30;;;4.18;;
38182;SDS011;23991;52.430;10.586;2024-01-07T09:00:45;7.18;;;3.65;;
38182;SDS011;23991;52.430;10.586;2024-01-07T09:03:11;8.13;;;3.70;;
38182;SDS011;23991;52.430;10.586;2024-01-07T09:05:36;9.90;;;3.83;;
38182;SDS011;23991;52.430;10.586;2024-01-07T09:08:02;6.05;;;3.88;;
38182;SDS011;23991;52.430;10.586;2024-01-07T09:10:28;8.18;;;3.80;;
38182;SDS011;23991;52.430;10.586;2024-01-07T09:12:54;6.63;;;3.40;;
38182;SDS011;23991;52.430;10.586;2024-01-07T09:15:19;4.82;;;3.50;;
38182;SDS011;23991;52.430;10.586;2024-01-07T09:17:46;5.22;;;3.20;;
38182;SDS011;23991;52.430;10.586;2024-01-07T09:20:12;5.82;;;3.25;;
38182;SDS011;23991;52.430;10.586;2024-01-07T09:22:38;5.10;;;3.08;;
38182;SDS011;23991;52.430;10.586;2024-01-07T09:25:05;5.57;;;3.10;;
38182;SDS011;23991;52.430;10.586;2024-01-07T09:27:34;4.93;;;3.22;;
38182;SDS011;23991;52.430;10.586;2024-01-07T09:30:00;4.28;;;2.92;;
38182;SDS011;23991;52.430;10.586;2024-01-07T09:32:26;6.25;;;3.45;;
38182;SDS011;23991;52.430;10.586;2024-01-07T09:34:52;6.35;;;3.65;;
38182;SDS011;23991;52.430;10.586;2024-01-07T09:37:18;5.90;;;3.30;;
38182;SDS011;23991;52.430;10.586;2024-01-07T09:39:45;6.03;;;3.85;;
38182;SDS011;23991;52.430;10.586;2024-01-07T09:42:14;6.78;;;3.10;;
38182;SDS011;23991;52.430;10.586;2024-01-07T09:44:42;5.95;;;3.80;;
38182;SDS011;23991;52.430;10.586;2024-01-07T09:47:12;5.30;;;2.95;;
38182;SDS011;23991;52.430;10.586;2024-01-07T09:49:39;5.28;;;3.45;;
38182;SDS011;23991;52.430;10.586;2024-01-07T09:52:06;6.53;;;3.85;;
38182;SDS011;23991;52.430;10.586;2024-01-07T09:54:33;6.75;;;4.18;;
38182;SDS011;23991;52.430;10.586;2024-01-07T09:57:02;9.52;;;5.07;;
38182;SDS011;23991;52.430;10.586;2024-01-07T09:59:29;10.88;;;4.93;;
38182;SDS011;23991;52.430;10.586;2024-01-07T10:01:55;13.05;;;6.35;;
38182;SDS011;23991;52.430;10.586;2024-01-07T10:04:22;12.93;;;7.45;;
38182;SDS011;23991;52.430;10.586;2024-01-07T10:06:49;18.13;;;8.75;;
38182;SDS011;23991;52.430;10.586;2024-01-07T10:09:16;22.55;;;9.15;;
38182;SDS011;23991;52.430;10.586;2024-01-07T10:11:43;15.40;;;7.88;;
38182;SDS011;23991;52.430;10.586;2024-01-07T10:14:09;15.88;;;6.40;;
38182;SDS011;23991;52.430;10.586;2024-01-07T10:16:35;21.00;;;9.10;;
38182;SDS011;23991;52.430;10.586;2024-01-07T10:19:00;13.20;;;6.32;;
38182;SDS011;23991;52.430;10.586;2024-01-07T10:21:26;19.30;;;8.40;;
38182;SDS011;23991;52.430;10.586;2024-01-07T10:24:08;19.52;;;9.88;;
38182;SDS011;23991;52.430;10.586;2024-01-07T10:26:38;11.93;;;6.10;;
38182;SDS011;23991;52.430;10.586;2024-01-07T10:29:04;9.48;;;5.35;;
38182;SDS011;23991;52.430;10.586;2024-01-07T10:31:34;14.52;;;6.07;;
38182;SDS011;23991;52.430;10.586;2024-01-07T10:36:26;5.88;;;4.10;;
38182;SDS011;23991;52.430;10.586;2024-01-07T10:38:52;8.10;;;5.00;;
38182;SDS011;23991;52.430;10.586;2024-01-07T10:41:19;7.28;;;3.78;;
38182;SDS011;23991;52.430;10.586;2024-01-07T10:43:48;5.20;;;3.53;;
38182;SDS011;23991;52.430;10.586;2024-01-07T10:46:15;7.95;;;4.13;;
38182;SDS011;23991;52.430;10.586;2024-01-07T10:48:53;7.45;;;5.10;;
38182;SDS011;23991;52.430;10.586;2024-01-07T10:51:30;10.00;;;4.90;;
38182;SDS011;23991;52.430;10.586;2024-01-07T10:53:59;9.25;;;5.88;;
38182;SDS011;23991;52.430;10.586;2024-01-07T10:56:26;8.98;;;5.57;;
38182;SDS011;23991;52.430;10.586;2024-01-07T10:58:58;8.88;;;5.47;;
38182;SDS011;23991;52.430;10.586;2024-01-07T11:01:24;6.00;;;3.88;;
38182;SDS011;23991;52.430;10.586;2024-01-07T11:06:33;5.68;;;3.40;;
38182;SDS011;23991;52.430;10.586;2024-01-07T11:09:19;6.72;;;3.40;;
38182;SDS011;23991;52.430;10.586;2024-01-07T11:12:09;6.00;;;3.78;;
38182;SDS011;23991;52.430;10.586;2024-01-07T11:14:37;6.72;;;3.58;;
38182;SDS011;23991;52.430;10.586;2024-01-07T11:17:10;5.22;;;3.00;;
38182;SDS011;23991;52.430;10.586;2024-01-07T11:19:36;5.20;;;3.20;;
38182;SDS011;23991;52.430;10.586;2024-01-07T11:22:20;8.48;;;3.78;;
38182;SDS011;23991;52.430;10.586;2024-01-07T11:24:52;10.05;;;3.55;;
38182;SDS011;23991;52.430;10.586;2024-01-07T11:30:07;8.93;;;3.05;;
38182;SDS011;23991;52.430;10.586;2024-01-07T11:32:44;6.40;;;3.22;;
38182;SDS011;23991;52.430;10.586;2024-01-07T11:35:13;4.80;;;3.15;;
38182;SDS011;23991;52.430;10.586;2024-01-07T11:37:39;7.55;;;3.75;;
38182;SDS011;23991;52.430;10.586;2024-01-07T11:40:05;9.50;;;4.63;;
38182;SDS011;23991;52.430;10.586;2024-01-07T11:42:32;12.02;;;4.55;;
38182;SDS011;23991;52.430;10.586;2024-01-07T11:44:58;8.52;;;3.50;;
38182;SDS011;23991;52.430;10.586;2024-01-07T11:47:23;7.25;;;4.00;;
38182;SDS011;23991;52.430;10.586;2024-01-07T11:49:53;13.98;;;5.45;;
38182;SDS011;23991;52.430;10.586;2024-01-07T11:52:19;9.55;;;3.50;;
38182;SDS011;23991;52.430;10.586;2024-01-07T11:54:45;6.20;;;3.15;;
38182;SDS011;23991;52.430;10.586;2024-01-07T11:57:12;7.35;;;3.15;;
38182;SDS011;23991;52.430;10.586;2024-01-07T11:59:38;9.80;;;4.00;;
38182;SDS011;23991;52.430;10.586;2024-01-07T12:02:04;21.67;;;7.50;;
38182;SDS011;23991;52.430;10.586;2024-01-07T12:04:30;10.27;;;5.55;;
38182;SDS011;23991;52.430;10.586;2024-01-07T12:06:57;10.90;;;5.10;;
38182;SDS011;23991;52.430;10.586;2024-01-07T12:09:23;8.52;;;4.60;;
38182;SDS011;23991;52.430;10.586;2024-01-07T12:11:49;6.93;;;3.88;;
38182;SDS011;23991;52.430;10.586;2024-01-07T12:14:15;5.00;;;3.38;;
38182;SDS011;23991;52.430;10.586;2024-01-07T12:16:41;8.95;;;4.43;;
38182;SDS011;23991;52.430;10.586;2024-01-07T12:19:10;6.32;;;3.63;;
38182;SDS011;23991;52.430;10.586;2024-01-07T12:21:37;13.25;;;6.35;;
38182;SDS011;23991;52.430;10.586;2024-01-07T12:24:03;9.02;;;5.00;;
38182;SDS011;23991;52.430;10.586;2024-01-07T12:26:29;8.05;;;4.63;;
38182;SDS011;23991;52.430;10.586;2024-01-07T12:28:58;5.35;;;3.22;;
38182;SDS011;23991;52.430;10.586;2024-01-07T12:31:28;7.18;;;3.47;;
38182;SDS011;23991;52.430;10.586;2024-01-07T12:33:56;6.32;;;3.17;;
38182;SDS011;23991;52.430;10.586;2024-01-07T12:36:22;8.27;;;3.28;;
38182;SDS011;23991;52.430;10.586;2024-01-07T12:38:48;8.23;;;3.40;;
38182;SDS011;23991;52.430;10.586;2024-01-07T12:41:14;6.53;;;3.22;;
38182;SDS011;23991;52.430;10.586;2024-01-07T12:43:40;5.40;;;2.83;;
38182;SDS011;23991;52.430;10.586;2024-01-07T12:46:05;4.00;;;2.58;;
38182;SDS011;23991;52.430;10.586;2024-01-07T12:48:31;6.65;;;3.38;;
38182;SDS011;23991;52.430;10.586;2024-01-07T12:50:58;4.57;;;2.53;;
38182;SDS011;23991;52.430;10.586;2024-01-07T12:53:23;4.90;;;2.70;;
38182;SDS011;23991;52.430;10.586;2024-01-07T12:55:49;7.22;;;3.72;;
38182;SDS011;23991;52.430;10.586;2024-01-07T12:58:15;8.05;;;2.97;;
38182;SDS011;23991;52.430;10.586;2024-01-07T13:00:42;5.43;;;2.95;;
38182;SDS011;23991;52.430;10.586;2024-01-07T13:03:08;6.47;;;2.80;;
38182;SDS011;23991;52.430;10.586;2024-01-07T13:05:39;4.32;;;2.47;;
38182;SDS011;23991;52.430;10.586;2024-01-07T13:08:06;4.65;;;2.88;;
38182;SDS011;23991;52.430;10.586;2024-01-07T13:10:32;5.63;;;2.45;;
38182;SDS011;23991;52.430;10.586;2024-01-07T13:12:58;8.32;;;2.72;;
38182;SDS011;23991;52.430;10.586;2024-01-07T13:15:24;3.40;;;2.45;;
38182;SDS011;23991;52.430;10.586;2024-01-07T13:17:50;4.65;;;2.80;;
38182;SDS011;23991;52.430;10.586;2024-01-07T13:20:16;3.80;;;2.35;;
38182;SDS011;23991;52.430;10.586;2024-01-07T13:22:44;4.95;;;2.63;;
38182;SDS011;23991;52.430;10.586;2024-01-07T13:25:11;5.32;;;2.58;;
38182;SDS011;23991;52.430;10.586;2024-01-07T13:27:37;7.25;;;3.00;;
38182;SDS011;23991;52.430;10.586;2024-01-07T13:30:03;5.75;;;2.92;;
38182;SDS011;23991;52.430;10.586;2024-01-07T13:32:29;4.97;;;2.65;;
38182;SDS011;23991;52.430;10.586;2024-01-07T13:34:55;5.35;;;2.85;;
38182;SDS011;23991;52.430;10.586;2024-01-07T13:37:21;3.88;;;2.30;;
38182;SDS011;23991;52.430;10.586;2024-01-07T13:39:47;7.60;;;3.10;;
38182;SDS011;23991;52.430;10.586;2024-01-07T13:42:14;5.82;;;3.03;;
38182;SDS011;23991;52.430;10.586;2024-01-07T13:44:40;5.47;;;2.65;;
38182;SDS011;23991;52.430;10.586;2024-01-07T13:47:11;5.35;;;2.70;;
38182;SDS011;23991;52.430;10.586;2024-01-07T13:49:39;4.30;;;2.30;;
38182;SDS011;23991;52.430;10.586;2024-01-07T13:52:05;5.15;;;3.20;;
38182;SDS011;23991;52.430;10.586;2024-01-07T13:54:31;5.75;;;2.78;;
38182;SDS011;23991;52.430;10.586;2024-01-07T13:56:56;6.43;;;3.00;;
38182;SDS011;23991;52.430;10.586;2024-01-07T13:59:22;6.38;;;3.35;;
38182;SDS011;23991;52.430;10.586;2024-01-07T14:01:48;5.28;;;3.00;;
38182;SDS011;23991;52.430;10.586;2024-01-07T14:04:14;6.75;;;3.47;;
38182;SDS011;23991;52.430;10.586;2024-01-07T14:06:40;5.97;;;2.92;;
38182;SDS011;23991;52.430;10.586;2024-01-07T14:09:06;7.80;;;3.20;;
38182;SDS011;23991;52.430;10.586;2024-01-07T14:11:33;11.07;;;6.40;;
38182;SDS011;23991;52.430;10.586;2024-01-07T14:13:59;10.68;;;4.85;;
38182;SDS011;23991;52.430;10.586;2024-01-07T14:16:29;7.20;;;4.00;;
38182;SDS011;23991;52.430;10.586;2024-01-07T14:18:55;7.95;;;3.58;;
38182;SDS011;23991;52.430;10.586;2024-01-07T14:21:20;6.45;;;3.88;;
38182;SDS011;23991;52.430;10.586;2024-01-07T14:23:46;6.85;;;3.20;;
38182;SDS011;23991;52.430;10.586;2024-01-07T14:26:12;7.43;;;2.90;;
38182;SDS011;23991;52.430;10.586;2024-01-07T14:28:38;4.47;;;2.60;;
38182;SDS011;23991;52.430;10.586;2024-01-07T14:31:04;4.00;;;2.13;;
38182;SDS011;23991;52.430;10.586;2024-01-07T14:33:30;5.07;;;2.33;;
38182;SDS011;23991;52.430;10.586;2024-01-07T14:35:56;4.80;;;2.40;;
38182;SDS011;23991;52.430;10.586;2024-01-07T14:38:21;4.15;;;2.40;;